Weather at Long Semado Airport

Public forecast

Using degrees Celsius for public forecast. Weather courtesy of forecast.io.

Closest aviation weather report (METAR) to Long Semado Airport

Closest report is Brunei International Airport, 59.4 nm (109.9 km) NW. Retrieved 2021/10/28 10:00 UTC (23 minutes ago):

WBSB 281000Z 02004KT 6000 -TSRA FEW005 SCT014 FEW015CB BKN140 27/27 Q1009 TEMPO 5000 TSRA

Closest aviation forecast (TAF) to Long Semado Airport

Closest forecast is Brunei International Airport, 59.4 nm (109.9 km) NW. Retrieved 2021/10/28 06:09 UTC (4 hours ago):

TAF WBSB 280450Z 2806/2912 29008KT 9999 SCT015 FEW016CB TEMPO 2809/2814 5000 TSRA SCT014 FEW015CB BECMG 2812/2814 16003KT FEW003 FEW015CB